sensor_id;sensor_type;location;lat;lon;timestamp;temperature;humidity
54429;DHT22;40337;52.978;6.310;2023-09-19T00:00:42;14.20;99.90
54429;DHT22;40337;52.978;6.310;2023-09-19T00:03:09;14.10;99.90
54429;DHT22;40337;52.978;6.310;2023-09-19T00:05:36;14.00;99.90
54429;DHT22;40337;52.978;6.310;2023-09-19T00:08:02;14.00;99.90
54429;DHT22;40337;52.978;6.310;2023-09-19T00:10:32;14.00;99.90
54429;DHT22;40337;52.978;6.310;2023-09-19T00:13:01;13.90;99.90
54429;DHT22;40337;52.978;6.310;2023-09-19T00:15:36;13.90;99.90
54429;DHT22;40337;52.978;6.310;2023-09-19T00:18:03;13.90;99.90
54429;DHT22;40337;52.978;6.310;2023-09-19T00:20:32;13.90;99.90
54429;DHT22;40337;52.978;6.310;2023-09-19T00:22:58;13.80;99.90
54429;DHT22;40337;52.978;6.310;2023-09-19T00:25:31;13.80;99.90
54429;DHT22;40337;52.978;6.310;2023-09-19T00:27:57;13.80;99.90
54429;DHT22;40337;52.978;6.310;2023-09-19T00:30:23;13.80;99.90
54429;DHT22;40337;52.978;6.310;2023-09-19T00:32:50;13.80;99.90
54429;DHT22;40337;52.978;6.310;2023-09-19T00:35:20;13.80;99.90
54429;DHT22;40337;52.978;6.310;2023-09-19T00:37:47;13.80;99.90
54429;DHT22;40337;52.978;6.310;2023-09-19T00:40:13;13.80;99.90
54429;DHT22;40337;52.978;6.310;2023-09-19T00:42:41;13.80;99.90
54429;DHT22;40337;52.978;6.310;2023-09-19T00:45:08;13.80;99.90
54429;DHT22;40337;52.978;6.310;2023-09-19T00:47:48;13.80;99.90
54429;DHT22;40337;52.978;6.310;2023-09-19T00:50:20;13.80;99.90
54429;DHT22;40337;52.978;6.310;2023-09-19T00:52:48;13.70;99.90
54429;DHT22;40337;52.978;6.310;2023-09-19T00:55:15;13.80;99.90
54429;DHT22;40337;52.978;6.310;2023-09-19T00:57:41;13.70;99.90
54429;DHT22;40337;52.978;6.310;2023-09-19T01:00:09;13.70;99.90
54429;DHT22;40337;52.978;6.310;2023-09-19T01:02:43;13.70;99.90
54429;DHT22;40337;52.978;6.310;2023-09-19T01:05:10;13.70;99.90
54429;DHT22;40337;52.978;6.310;2023-09-19T01:07:36;13.70;99.90
54429;DHT22;40337;52.978;6.310;2023-09-19T01:10:06;13.70;99.90
54429;DHT22;40337;52.978;6.310;2023-09-19T01:15:46;13.60;99.90
54429;DHT22;40337;52.978;6.310;2023-09-19T01:21:28;13.50;99.90
54429;DHT22;40337;52.978;6.310;2023-09-19T01:29:44;13.40;99.90
54429;DHT22;40337;52.978;6.310;2023-09-19T01:32:11;13.40;99.90
54429;DHT22;40337;52.978;6.310;2023-09-19T01:37:13;13.30;99.90
54429;DHT22;40337;52.978;6.310;2023-09-19T01:39:40;13.30;99.90
54429;DHT22;40337;52.978;6.310;2023-09-19T01:42:24;13.30;99.90
54429;DHT22;40337;52.978;6.310;2023-09-19T01:45:02;13.20;99.90
54429;DHT22;40337;52.978;6.310;2023-09-19T01:47:51;13.20;99.90
54429;DHT22;40337;52.978;6.310;2023-09-19T01:50:41;13.20;99.90
54429;DHT22;40337;52.978;6.310;2023-09-19T01:53:14;13.10;99.90
54429;DHT22;40337;52.978;6.310;2023-09-19T01:55:47;13.10;99.90
54429;DHT22;40337;52.978;6.310;2023-09-19T01:58:41;13.10;99.90
54429;DHT22;40337;52.978;6.310;2023-09-19T02:01:13;13.10;99.90
54429;DHT22;40337;52.978;6.310;2023-09-19T02:03:41;13.10;99.90
54429;DHT22;40337;52.978;6.310;2023-09-19T02:06:16;13.00;99.90
54429;DHT22;40337;52.978;6.310;2023-09-19T02:08:43;13.00;99.90
54429;DHT22;40337;52.978;6.310;2023-09-19T02:11:13;13.00;99.90
54429;DHT22;40337;52.978;6.310;2023-09-19T02:13:39;13.00;99.90
54429;DHT22;40337;52.978;6.310;2023-09-19T02:16:06;12.90;99.90
54429;DHT22;40337;52.978;6.310;2023-09-19T02:18:32;12.90;99.90
54429;DHT22;40337;52.978;6.310;2023-09-19T02:21:01;12.90;99.90
54429;DHT22;40337;52.978;6.310;2023-09-19T02:23:27;12.80;99.90
54429;DHT22;40337;52.978;6.310;2023-09-19T02:25:53;12.90;99.90
54429;DHT22;40337;52.978;6.310;2023-09-19T02:28:19;12.90;99.90
54429;DHT22;40337;52.978;6.310;2023-09-19T02:30:48;12.90;99.90
54429;DHT22;40337;52.978;6.310;2023-09-19T02:33:14;12.90;99.90
54429;DHT22;40337;52.978;6.310;2023-09-19T02:35:40;12.90;99.90
54429;DHT22;40337;52.978;6.310;2023-09-19T02:38:05;12.80;99.90
54429;DHT22;40337;52.978;6.310;2023-09-19T02:40:33;12.90;99.90
54429;DHT22;40337;52.978;6.310;2023-09-19T02:43:01;12.80;99.90
54429;DHT22;40337;52.978;6.310;2023-09-19T02:45:27;12.90;99.90
54429;DHT22;40337;52.978;6.310;2023-09-19T02:47:53;12.90;99.90
54429;DHT22;40337;52.978;6.310;2023-09-19T02:50:18;12.90;99.90
54429;DHT22;40337;52.978;6.310;2023-09-19T02:52:46;12.90;99.90
54429;DHT22;40337;52.978;6.310;2023-09-19T02:55:16;12.90;99.90
54429;DHT22;40337;52.978;6.310;2023-09-19T02:57:50;13.00;99.90
54429;DHT22;40337;52.978;6.310;2023-09-19T03:00:17;13.00;99.90
54429;DHT22;40337;52.978;6.310;2023-09-19T03:02:54;13.00;99.90
54429;DHT22;40337;52.978;6.310;2023-09-19T03:05:20;13.00;99.90
54429;DHT22;40337;52.978;6.310;2023-09-19T03:07:47;13.00;99.90
54429;DHT22;40337;52.978;6.310;2023-09-19T03:10:16;13.10;99.90
54429;DHT22;40337;52.978;6.310;2023-09-19T03:12:43;13.10;99.90
54429;DHT22;40337;52.978;6.310;2023-09-19T03:15:09;13.10;99.90
54429;DHT22;40337;52.978;6.310;2023-09-19T03:17:35;13.10;99.90
54429;DHT22;40337;52.978;6.310;2023-09-19T03:20:01;13.00;99.90
54429;DHT22;40337;52.978;6.310;2023-09-19T03:22:27;13.00;99.90
54429;DHT22;40337;52.978;6.310;2023-09-19T03:24:53;13.00;99.90
54429;DHT22;40337;52.978;6.310;2023-09-19T03:27:19;13.00;99.90
54429;DHT22;40337;52.978;6.310;2023-09-19T03:29:46;12.90;99.90
54429;DHT22;40337;52.978;6.310;2023-09-19T03:32:11;12.90;99.90
54429;DHT22;40337;52.978;6.310;2023-09-19T03:34:37;12.90;99.90
54429;DHT22;40337;52.978;6.310;2023-09-19T03:37:08;12.90;99.90
54429;DHT22;40337;52.978;6.310;2023-09-19T03:39:34;12.80;99.90
54429;DHT22;40337;52.978;6.310;2023-09-19T03:42:00;12.90;99.90
54429;DHT22;40337;52.978;6.310;2023-09-19T03:44:25;12.90;99.90
54429;DHT22;40337;52.978;6.310;2023-09-19T03:46:51;12.90;99.90
54429;DHT22;40337;52.978;6.310;2023-09-19T03:49:17;12.90;99.90
54429;DHT22;40337;52.978;6.310;2023-09-19T03:51:42;13.00;99.90
54429;DHT22;40337;52.978;6.310;2023-09-19T03:54:08;13.00;99.90
54429;DHT22;40337;52.978;6.310;2023-09-19T03:56:34;13.00;99.90
54429;DHT22;40337;52.978;6.310;2023-09-19T03:58:59;13.10;99.90
54429;DHT22;40337;52.978;6.310;2023-09-19T04:01:25;13.10;99.90
54429;DHT22;40337;52.978;6.310;2023-09-19T04:03:51;13.20;99.90
54429;DHT22;40337;52.978;6.310;2023-09-19T04:06:19;13.20;99.90
54429;DHT22;40337;52.978;6.310;2023-09-19T04:08:44;13.30;99.90
54429;DHT22;40337;52.978;6.310;2023-09-19T04:11:11;13.30;99.90
54429;DHT22;40337;52.978;6.310;2023-09-19T04:13:36;13.30;99.90
54429;DHT22;40337;52.978;6.310;2023-09-19T04:16:03;13.30;99.90
54429;DHT22;40337;52.978;6.310;2023-09-19T04:18:34;13.40;99.90
54429;DHT22;40337;52.978;6.310;2023-09-19T04:21:04;13.40;99.90
54429;DHT22;40337;52.978;6.310;2023-09-19T04:23:31;13.30;99.90
54429;DHT22;40337;52.978;6.310;2023-09-19T04:25:57;13.40;99.90
54429;DHT22;40337;52.978;6.310;2023-09-19T04:28:23;13.30;99.90
54429;DHT22;40337;52.978;6.310;2023-09-19T04:30:50;13.30;99.90
54429;DHT22;40337;52.978;6.310;2023-09-19T04:33:15;13.40;99.90
54429;DHT22;40337;52.978;6.310;2023-09-19T04:35:41;13.40;99.90
54429;DHT22;40337;52.978;6.310;2023-09-19T04:38:08;13.40;99.90
54429;DHT22;40337;52.978;6.310;2023-09-19T04:40:34;13.40;99.90
54429;DHT22;40337;52.978;6.310;2023-09-19T04:43:00;13.40;99.90
54429;DHT22;40337;52.978;6.310;2023-09-19T04:45:27;13.40;99.90
54429;DHT22;40337;52.978;6.310;2023-09-19T04:47:53;13.40;99.90
54429;DHT22;40337;52.978;6.310;2023-09-19T04:50:19;13.40;99.90
54429;DHT22;40337;52.978;6.310;2023-09-19T04:52:50;13.30;99.90
54429;DHT22;40337;52.978;6.310;2023-09-19T04:55:17;13.30;99.90
54429;DHT22;40337;52.978;6.310;2023-09-19T04:57:48;13.30;99.90
54429;DHT22;40337;52.978;6.310;2023-09-19T05:00:21;13.30;99.90
54429;DHT22;40337;52.978;6.310;2023-09-19T05:02:51;13.30;99.90
54429;DHT22;40337;52.978;6.310;2023-09-19T05:05:17;13.20;99.90
54429;DHT22;40337;52.978;6.310;2023-09-19T05:07:45;13.20;99.90
54429;DHT22;40337;52.978;6.310;2023-09-19T05:10:10;13.10;99.90
54429;DHT22;40337;52.978;6.310;2023-09-19T05:12:37;13.20;99.90
54429;DHT22;40337;52.978;6.310;2023-09-19T05:15:06;13.20;99.90
54429;DHT22;40337;52.978;6.310;2023-09-19T05:17:33;13.20;99.90
54429;DHT22;40337;52.978;6.310;2023-09-19T05:19:59;13.20;99.90
54429;DHT22;40337;52.978;6.310;2023-09-19T05:22:29;13.20;99.90
54429;DHT22;40337;52.978;6.310;2023-09-19T05:24:54;13.20;99.90
54429;DHT22;40337;52.978;6.310;2023-09-19T05:27:20;13.20;99.90
54429;DHT22;40337;52.978;6.310;2023-09-19T05:29:46;13.20;99.90
54429;DHT22;40337;52.978;6.310;2023-09-19T05:32:12;13.20;99.90
54429;DHT22;40337;52.978;6.310;2023-09-19T05:34:38;13.30;99.90
54429;DHT22;40337;52.978;6.310;2023-09-19T05:37:04;13.30;99.90
54429;DHT22;40337;52.978;6.310;2023-09-19T05:39:33;13.30;99.90
54429;DHT22;40337;52.978;6.310;2023-09-19T05:41:59;13.30;99.90
54429;DHT22;40337;52.978;6.310;2023-09-19T05:44:26;13.30;99.90
54429;DHT22;40337;52.978;6.310;2023-09-19T05:46:53;13.30;99.90
54429;DHT22;40337;52.978;6.310;2023-09-19T05:49:19;13.30;99.90
54429;DHT22;40337;52.978;6.310;2023-09-19T05:51:47;13.30;99.90
54429;DHT22;40337;52.978;6.310;2023-09-19T05:54:12;13.30;99.90
54429;DHT22;40337;52.978;6.310;2023-09-19T05:56:38;13.30;99.90
54429;DHT22;40337;52.978;6.310;2023-09-19T05:59:03;13.30;99.90
54429;DHT22;40337;52.978;6.310;2023-09-19T06:01:30;13.30;99.90
54429;DHT22;40337;52.978;6.310;2023-09-19T06:03:58;13.30;99.90
54429;DHT22;40337;52.978;6.310;2023-09-19T06:06:25;13.30;99.90
54429;DHT22;40337;52.978;6.310;2023-09-19T06:08:51;13.30;99.90
54429;DHT22;40337;52.978;6.310;2023-09-19T06:11:17;13.40;99.90
54429;DHT22;40337;52.978;6.310;2023-09-19T06:13:45;13.40;99.90
54429;DHT22;40337;52.978;6.310;2023-09-19T06:16:12;13.40;99.90
54429;DHT22;40337;52.978;6.310;2023-09-19T06:18:38;13.50;99.90
54429;DHT22;40337;52.978;6.310;2023-09-19T06:21:04;13.50;99.90
54429;DHT22;40337;52.978;6.310;2023-09-19T06:23:33;13.50;99.90
54429;DHT22;40337;52.978;6.310;2023-09-19T06:25:59;13.50;99.90
54429;DHT22;40337;52.978;6.310;2023-09-19T06:28:25;13.60;99.90
54429;DHT22;40337;52.978;6.310;2023-09-19T06:30:54;13.60;99.90
54429;DHT22;40337;52.978;6.310;2023-09-19T06:33:19;13.50;99.90
54429;DHT22;40337;52.978;6.310;2023-09-19T06:35:47;13.50;99.90
54429;DHT22;40337;52.978;6.310;2023-09-19T06:38:13;13.50;99.90
54429;DHT22;40337;52.978;6.310;2023-09-19T06:40:41;13.50;99.90
54429;DHT22;40337;52.978;6.310;2023-09-19T06:43:10;13.50;99.90
54429;DHT22;40337;52.978;6.310;2023-09-19T06:45:35;13.50;99.90
54429;DHT22;40337;52.978;6.310;2023-09-19T06:48:01;13.50;99.90
54429;DHT22;40337;52.978;6.310;2023-09-19T06:50:28;13.50;99.90
54429;DHT22;40337;52.978;6.310;2023-09-19T06:52:56;13.50;99.90
54429;DHT22;40337;52.978;6.310;2023-09-19T06:55:22;13.60;99.90
54429;DHT22;40337;52.978;6.310;2023-09-19T06:57:53;13.60;99.90
54429;DHT22;40337;52.978;6.310;2023-09-19T07:00:22;13.60;99.90
54429;DHT22;40337;52.978;6.310;2023-09-19T07:02:58;13.70;99.90
54429;DHT22;40337;52.978;6.310;2023-09-19T07:05:27;13.80;99.90
54429;DHT22;40337;52.978;6.310;2023-09-19T07:07:53;13.80;99.90
54429;DHT22;40337;52.978;6.310;2023-09-19T07:10:20;13.90;99.90
54429;DHT22;40337;52.978;6.310;2023-09-19T07:12:59;14.00;99.90
54429;DHT22;40337;52.978;6.310;2023-09-19T07:15:26;14.00;99.90
54429;DHT22;40337;52.978;6.310;2023-09-19T07:17:52;14.10;99.90
54429;DHT22;40337;52.978;6.310;2023-09-19T07:20:19;14.10;99.90
54429;DHT22;40337;52.978;6.310;2023-09-19T07:22:45;14.20;99.90
54429;DHT22;40337;52.978;6.310;2023-09-19T07:25:11;14.20;99.90
54429;DHT22;40337;52.978;6.310;2023-09-19T07:27:40;14.20;99.90
54429;DHT22;40337;52.978;6.310;2023-09-19T07:30:06;14.20;99.90
54429;DHT22;40337;52.978;6.310;2023-09-19T07:32:33;14.20;99.90
54429;DHT22;40337;52.978;6.310;2023-09-19T07:35:02;14.20;99.90
54429;DHT22;40337;52.978;6.310;2023-09-19T07:37:29;14.20;99.90
54429;DHT22;40337;52.978;6.310;2023-09-19T07:39:56;14.20;99.90
54429;DHT22;40337;52.978;6.310;2023-09-19T07:42:22;14.20;99.90
54429;DHT22;40337;52.978;6.310;2023-09-19T07:44:47;14.30;99.90
54429;DHT22;40337;52.978;6.310;2023-09-19T07:47:16;14.30;99.90
54429;DHT22;40337;52.978;6.310;2023-09-19T07:49:42;14.50;99.90
54429;DHT22;40337;52.978;6.310;2023-09-19T07:52:08;14.50;99.90
54429;DHT22;40337;52.978;6.310;2023-09-19T07:54:35;14.60;99.90
54429;DHT22;40337;52.978;6.310;2023-09-19T07:57:01;14.60;99.90
54429;DHT22;40337;52.978;6.310;2023-09-19T07:59:27;14.60;99.90
54429;DHT22;40337;52.978;6.310;2023-09-19T08:01:53;14.60;99.90
54429;DHT22;40337;52.978;6.310;2023-09-19T08:04:19;14.60;99.90
54429;DHT22;40337;52.978;6.310;2023-09-19T08:06:45;14.60;99.90
54429;DHT22;40337;52.978;6.310;2023-09-19T08:09:11;14.60;99.90
54429;DHT22;40337;52.978;6.310;2023-09-19T08:11:37;14.70;99.90
54429;DHT22;40337;52.978;6.310;2023-09-19T08:14:04;14.70;99.90
54429;DHT22;40337;52.978;6.310;2023-09-19T08:16:31;14.80;99.90
54429;DHT22;40337;52.978;6.310;2023-09-19T08:18:57;14.80;99.90
54429;DHT22;40337;52.978;6.310;2023-09-19T08:21:22;14.90;99.90
54429;DHT22;40337;52.978;6.310;2023-09-19T08:23:49;15.00;99.90
54429;DHT22;40337;52.978;6.310;2023-09-19T08:26:15;15.10;99.90
54429;DHT22;40337;52.978;6.310;2023-09-19T08:28:41;15.10;99.90
54429;DHT22;40337;52.978;6.310;2023-09-19T08:31:07;15.10;99.90
54429;DHT22;40337;52.978;6.310;2023-09-19T08:33:36;15.10;99.90
54429;DHT22;40337;52.978;6.310;2023-09-19T08:36:03;15.10;99.90
54429;DHT22;40337;52.978;6.310;2023-09-19T08:38:31;15.20;99.90
54429;DHT22;40337;52.978;6.310;2023-09-19T08:40:58;15.20;99.90
54429;DHT22;40337;52.978;6.310;2023-09-19T08:43:27;15.20;99.90
54429;DHT22;40337;52.978;6.310;2023-09-19T08:46:10;15.30;99.90
54429;DHT22;40337;52.978;6.310;2023-09-19T08:48:39;15.40;99.90
54429;DHT22;40337;52.978;6.310;2023-09-19T08:51:27;15.50;99.90
54429;DHT22;40337;52.978;6.310;2023-09-19T08:56:29;15.70;99.90
54429;DHT22;40337;52.978;6.310;2023-09-19T08:59:04;15.70;99.90
54429;DHT22;40337;52.978;6.310;2023-09-19T09:01:33;15.80;99.90
54429;DHT22;40337;52.978;6.310;2023-09-19T09:03:59;15.90;99.90
54429;DHT22;40337;52.978;6.310;2023-09-19T09:06:26;15.90;99.90
54429;DHT22;40337;52.978;6.310;2023-09-19T09:08:55;16.00;99.90
54429;DHT22;40337;52.978;6.310;2023-09-19T09:11:22;16.00;99.90
54429;DHT22;40337;52.978;6.310;2023-09-19T09:13:50;16.10;99.90
54429;DHT22;40337;52.978;6.310;2023-09-19T09:16:16;16.10;99.90
54429;DHT22;40337;52.978;6.310;2023-09-19T09:18:49;16.10;99.90
54429;DHT22;40337;52.978;6.310;2023-09-19T09:21:20;16.30;99.90
54429;DHT22;40337;52.978;6.310;2023-09-19T09:23:48;16.40;99.90
54429;DHT22;40337;52.978;6.310;2023-09-19T09:26:15;16.60;99.90
54429;DHT22;40337;52.978;6.310;2023-09-19T09:28:45;16.70;99.90
54429;DHT22;40337;52.978;6.310;2023-09-19T09:31:24;16.80;99.90
54429;DHT22;40337;52.978;6.310;2023-09-19T09:33:54;16.90;99.90
54429;DHT22;40337;52.978;6.310;2023-09-19T09:36:37;17.00;99.90
54429;DHT22;40337;52.978;6.310;2023-09-19T09:39:03;17.00;99.90
54429;DHT22;40337;52.978;6.310;2023-09-19T09:41:49;17.10;99.90
54429;DHT22;40337;52.978;6.310;2023-09-19T09:44:16;17.10;99.90
54429;DHT22;40337;52.978;6.310;2023-09-19T09:46:47;17.10;99.90
54429;DHT22;40337;52.978;6.310;2023-09-19T09:49:23;17.20;99.90
54429;DHT22;40337;52.978;6.310;2023-09-19T09:51:50;17.30;99.90
54429;DHT22;40337;52.978;6.310;2023-09-19T09:54:26;17.40;99.90
54429;DHT22;40337;52.978;6.310;2023-09-19T09:57:05;17.40;99.90
54429;DHT22;40337;52.978;6.310;2023-09-19T09:59:50;17.50;99.90
54429;DHT22;40337;52.978;6.310;2023-09-19T10:02:17;17.70;99.90
54429;DHT22;40337;52.978;6.310;2023-09-19T10:04:51;17.80;99.90
54429;DHT22;40337;52.978;6.310;2023-09-19T10:07:35;17.80;99.90
54429;DHT22;40337;52.978;6.310;2023-09-19T10:10:06;17.90;99.90
54429;DHT22;40337;52.978;6.310;2023-09-19T10:12:43;18.00;99.90
54429;DHT22;40337;52.978;6.310;2023-09-19T10:15:11;18.20;99.90
54429;DHT22;40337;52.978;6.310;2023-09-19T10:17:45;18.20;99.90
54429;DHT22;40337;52.978;6.310;2023-09-19T10:20:16;18.00;99.90
54429;DHT22;40337;52.978;6.310;2023-09-19T10:22:50;18.00;99.90
54429;DHT22;40337;52.978;6.310;2023-09-19T10:25:41;18.00;99.90
54429;DHT22;40337;52.978;6.310;2023-09-19T10:28:09;18.10;99.90
54429;DHT22;40337;52.978;6.310;2023-09-19T10:30:45;18.20;99.90
54429;DHT22;40337;52.978;6.310;2023-09-19T10:33:13;18.10;99.90
54429;DHT22;40337;52.978;6.310;2023-09-19T10:35:42;17.90;99.90
54429;DHT22;40337;52.978;6.310;2023-09-19T10:38:13;17.80;99.90
54429;DHT22;40337;52.978;6.310;2023-09-19T10:40:40;18.20;99.90
54429;DHT22;40337;52.978;6.310;2023-09-19T10:43:12;18.20;99.90
54429;DHT22;40337;52.978;6.310;2023-09-19T10:45:39;18.20;99.90
54429;DHT22;40337;52.978;6.310;2023-09-19T10:48:06;18.30;99.90
54429;DHT22;40337;52.978;6.310;2023-09-19T10:50:43;18.30;99.90
54429;DHT22;40337;52.978;6.310;2023-09-19T10:53:11;18.30;99.90
54429;DHT22;40337;52.978;6.310;2023-09-19T10:55:38;18.10;99.90
54429;DHT22;40337;52.978;6.310;2023-09-19T10:58:06;18.00;99.90
54429;DHT22;40337;52.978;6.310;2023-09-19T11:00:51;17.90;99.90
54429;DHT22;40337;52.978;6.310;2023-09-19T11:03:18;17.90;99.90
54429;DHT22;40337;52.978;6.310;2023-09-19T11:08:26;17.70;99.90
54429;DHT22;40337;52.978;6.310;2023-09-19T11:10:52;17.70;99.90
54429;DHT22;40337;52.978;6.310;2023-09-19T11:13:31;17.60;99.90
54429;DHT22;40337;52.978;6.310;2023-09-19T11:26:50;18.00;99.90
54429;DHT22;40337;52.978;6.310;2023-09-19T11:29:27;18.00;99.90
54429;DHT22;40337;52.978;6.310;2023-09-19T11:31:54;17.80;99.90
54429;DHT22;40337;52.978;6.310;2023-09-19T11:42:44;18.10;99.90
54429;DHT22;40337;52.978;6.310;2023-09-19T11:48:06;17.80;99.90
54429;DHT22;40337;52.978;6.310;2023-09-19T11:50:32;17.70;99.90
54429;DHT22;40337;52.978;6.310;2023-09-19T11:53:00;17.60;99.90
54429;DHT22;40337;52.978;6.310;2023-09-19T11:55:28;17.60;99.90
54429;DHT22;40337;52.978;6.310;2023-09-19T11:57:58;17.60;99.90
54429;DHT22;40337;52.978;6.310;2023-09-19T12:00:24;17.60;99.90
54429;DHT22;40337;52.978;6.310;2023-09-19T12:02:55;17.60;99.90
54429;DHT22;40337;52.978;6.310;2023-09-19T12:05:30;17.50;99.90
54429;DHT22;40337;52.978;6.310;2023-09-19T12:07:56;17.40;99.90
54429;DHT22;40337;52.978;6.310;2023-09-19T12:10:22;17.40;99.90
54429;DHT22;40337;52.978;6.310;2023-09-19T12:12:49;17.40;99.90
54429;DHT22;40337;52.978;6.310;2023-09-19T12:15:16;17.40;99.90
54429;DHT22;40337;52.978;6.310;2023-09-19T12:17:48;17.40;99.90
54429;DHT22;40337;52.978;6.310;2023-09-19T12:20:14;17.50;99.90
54429;DHT22;40337;52.978;6.310;2023-09-19T12:25:06;17.60;99.90
54429;DHT22;40337;52.978;6.310;2023-09-19T12:27:46;17.70;99.90
54429;DHT22;40337;52.978;6.310;2023-09-19T12:30:27;17.90;99.90
54429;DHT22;40337;52.978;6.310;2023-09-19T12:32:53;18.00;99.90
54429;DHT22;40337;52.978;6.310;2023-09-19T12:35:28;18.00;99.90
54429;DHT22;40337;52.978;6.310;2023-09-19T12:37:55;18.10;99.90
54429;DHT22;40337;52.978;6.310;2023-09-19T12:40:22;18.10;99.90
54429;DHT22;40337;52.978;6.310;2023-09-19T12:42:49;18.10;99.90
54429;DHT22;40337;52.978;6.310;2023-09-19T12:45:17;18.10;99.90
54429;DHT22;40337;52.978;6.310;2023-09-19T12:48:18;18.00;99.90
54429;DHT22;40337;52.978;6.310;2023-09-19T12:53:34;17.70;99.90
54429;DHT22;40337;52.978;6.310;2023-09-19T12:56:03;17.70;99.90
54429;DHT22;40337;52.978;6.310;2023-09-19T12:58:34;17.60;99.90
54429;DHT22;40337;52.978;6.310;2023-09-19T13:01:00;17.60;99.90
54429;DHT22;40337;52.978;6.310;2023-09-19T13:03:27;17.70;99.90
54429;DHT22;40337;52.978;6.310;2023-09-19T13:06:03;17.70;99.90
54429;DHT22;40337;52.978;6.310;2023-09-19T13:08:39;17.70;99.90
54429;DHT22;40337;52.978;6.310;2023-09-19T13:11:12;17.70;99.90
54429;DHT22;40337;52.978;6.310;2023-09-19T13:13:40;17.70;99.90
54429;DHT22;40337;52.978;6.310;2023-09-19T13:16:07;17.70;99.90
54429;DHT22;40337;52.978;6.310;2023-09-19T13:18:44;17.70;99.90
54429;DHT22;40337;52.978;6.310;2023-09-19T13:21:13;17.60;99.90
54429;DHT22;40337;52.978;6.310;2023-09-19T13:23:53;17.70;99.90
54429;DHT22;40337;52.978;6.310;2023-09-19T13:26:27;17.60;99.90
54429;DHT22;40337;52.978;6.310;2023-09-19T13:28:54;17.50;99.90
54429;DHT22;40337;52.978;6.310;2023-09-19T13:31:19;17.50;99.90
54429;DHT22;40337;52.978;6.310;2023-09-19T13:33:48;17.50;99.90
54429;DHT22;40337;52.978;6.310;2023-09-19T13:36:14;17.40;99.90
54429;DHT22;40337;52.978;6.310;2023-09-19T13:38:41;17.30;99.90
54429;DHT22;40337;52.978;6.310;2023-09-19T13:41:11;17.20;99.90
54429;DHT22;40337;52.978;6.310;2023-09-19T13:43:38;17.20;99.90
54429;DHT22;40337;52.978;6.310;2023-09-19T13:46:04;17.20;99.90
54429;DHT22;40337;52.978;6.310;2023-09-19T13:48:30;17.30;99.90
54429;DHT22;40337;52.978;6.310;2023-09-19T13:50:56;17.50;99.90
54429;DHT22;40337;52.978;6.310;2023-09-19T13:53:22;17.60;99.90
54429;DHT22;40337;52.978;6.310;2023-09-19T13:55:48;17.70;99.90
54429;DHT22;40337;52.978;6.310;2023-09-19T13:58:16;17.80;99.90
54429;DHT22;40337;52.978;6.310;2023-09-19T14:00:41;17.80;99.90
54429;DHT22;40337;52.978;6.310;2023-09-19T14:03:08;17.80;99.90
54429;DHT22;40337;52.978;6.310;2023-09-19T14:05:33;17.80;99.90
54429;DHT22;40337;52.978;6.310;2023-09-19T14:07:59;17.80;99.90
54429;DHT22;40337;52.978;6.310;2023-09-19T14:10:25;17.80;99.90
54429;DHT22;40337;52.978;6.310;2023-09-19T14:12:55;17.80;99.90
54429;DHT22;40337;52.978;6.310;2023-09-19T14:15:21;17.80;99.90
54429;DHT22;40337;52.978;6.310;2023-09-19T14:17:55;17.80;99.90
54429;DHT22;40337;52.978;6.310;2023-09-19T14:20:21;17.90;99.90
54429;DHT22;40337;52.978;6.310;2023-09-19T14:22:48;17.90;99.90
54429;DHT22;40337;52.978;6.310;2023-09-19T14:25:13;17.90;99.90
54429;DHT22;40337;52.978;6.310;2023-09-19T14:27:39;18.00;99.90
54429;DHT22;40337;52.978;6.310;2023-09-19T14:30:05;18.00;99.90
54429;DHT22;40337;52.978;6.310;2023-09-19T14:32:31;18.00;99.90
54429;DHT22;40337;52.978;6.310;2023-09-19T14:34:57;18.00;99.90
54429;DHT22;40337;52.978;6.310;2023-09-19T14:37:22;18.00;99.90
54429;DHT22;40337;52.978;6.310;2023-09-19T14:39:48;18.00;99.90
54429;DHT22;40337;52.978;6.310;2023-09-19T14:42:13;18.00;99.90
54429;DHT22;40337;52.978;6.310;2023-09-19T14:44:43;18.00;99.90
54429;DHT22;40337;52.978;6.310;2023-09-19T14:47:08;17.90;99.90
54429;DHT22;40337;52.978;6.310;2023-09-19T14:49:34;17.90;99.90
54429;DHT22;40337;52.978;6.310;2023-09-19T14:52:00;17.90;99.90
54429;DHT22;40337;52.978;6.310;2023-09-19T14:54:29;17.90;99.90
54429;DHT22;40337;52.978;6.310;2023-09-19T14:56:56;17.90;99.90
54429;DHT22;40337;52.978;6.310;2023-09-19T14:59:33;17.90;99.90
54429;DHT22;40337;52.978;6.310;2023-09-19T15:02:05;17.80;99.90
54429;DHT22;40337;52.978;6.310;2023-09-19T15:04:31;17.80;99.90
54429;DHT22;40337;52.978;6.310;2023-09-19T15:06:57;17.70;99.90
54429;DHT22;40337;52.978;6.310;2023-09-19T15:09:23;17.50;99.90
54429;DHT22;40337;52.978;6.310;2023-09-19T15:11:55;17.40;99.90
54429;DHT22;40337;52.978;6.310;2023-09-19T15:14:21;17.20;99.90
54429;DHT22;40337;52.978;6.310;2023-09-19T15:16:48;17.00;99.90
54429;DHT22;40337;52.978;6.310;2023-09-19T15:19:15;17.00;99.90
54429;DHT22;40337;52.978;6.310;2023-09-19T15:21:41;17.00;99.90
54429;DHT22;40337;52.978;6.310;2023-09-19T15:24:07;17.00;99.90
54429;DHT22;40337;52.978;6.310;2023-09-19T15:26:35;17.00;99.90
54429;DHT22;40337;52.978;6.310;2023-09-19T15:29:05;17.00;99.90
54429;DHT22;40337;52.978;6.310;2023-09-19T15:31:31;16.90;99.90
54429;DHT22;40337;52.978;6.310;2023-09-19T15:33:57;16.90;99.90
54429;DHT22;40337;52.978;6.310;2023-09-19T15:36:23;16.80;99.90
54429;DHT22;40337;52.978;6.310;2023-09-19T15:41:33;16.70;99.90
54429;DHT22;40337;52.978;6.310;2023-09-19T15:44:01;16.70;99.90
54429;DHT22;40337;52.978;6.310;2023-09-19T15:46:27;16.60;99.90
54429;DHT22;40337;52.978;6.310;2023-09-19T15:48:55;16.60;99.90
54429;DHT22;40337;52.978;6.310;2023-09-19T15:51:22;16.60;99.90
54429;DHT22;40337;52.978;6.310;2023-09-19T15:53:49;16.50;99.90
54429;DHT22;40337;52.978;6.310;2023-09-19T15:56:18;16.50;99.90
54429;DHT22;40337;52.978;6.310;2023-09-19T15:58:47;16.50;99.90
54429;DHT22;40337;52.978;6.310;2023-09-19T16:01:13;16.40;99.90
54429;DHT22;40337;52.978;6.310;2023-09-19T16:03:45;16.40;99.90
54429;DHT22;40337;52.978;6.310;2023-09-19T16:06:20;16.40;99.90
54429;DHT22;40337;52.978;6.310;2023-09-19T16:08:51;16.40;99.90
54429;DHT22;40337;52.978;6.310;2023-09-19T16:11:18;16.30;99.90
54429;DHT22;40337;52.978;6.310;2023-09-19T16:13:47;16.30;99.90
54429;DHT22;40337;52.978;6.310;2023-09-19T16:16:13;16.30;99.90
54429;DHT22;40337;52.978;6.310;2023-09-19T16:18:55;16.30;99.90
54429;DHT22;40337;52.978;6.310;2023-09-19T16:21:23;16.30;99.90
54429;DHT22;40337;52.978;6.310;2023-09-19T16:23:50;16.20;99.90
54429;DHT22;40337;52.978;6.310;2023-09-19T16:26:17;16.10;99.90
54429;DHT22;40337;52.978;6.310;2023-09-19T16:28:45;16.20;99.90